Time;durP1;ratioP1;P1;durP2;ratioP2;P2;SDS_P1;SDS_P2;PMS_P1;PMS_P2;Temp;Humidity;BMP_temperature;BMP_pressure;BME280_temperature;BME280_humidity;BME280_pressure;Samples;Min_cycle;Max_cycle;Signal;HPM_P1;HPM_P2
2023/04/20 00:00:10;;;;;;;;;;;13.60;98.60;13.90;99077.00;;;;337119;28;82453;-96
2023/04/20 00:00:22;;;;;;;;;;;13.60;98.80;13.80;99070.00;;;;333880;29;96962;-96
2023/04/20 00:00:35;;;;;;;;;;;13.50;98.70;13.80;99081.00;;;;335824;29;82535;-96
2023/04/20 00:00:47;;;;;;;;;;;13.60;98.70;13.80;99083.00;;;;336150;28;94211;-96
2023/04/20 00:01:00;;;;;;;;;;;13.60;98.70;13.90;99082.00;;;;337069;28;82545;-96
2023/04/20 00:01:12;;;;;;;;;;;13.50;98.60;13.80;99080.00;;;;336336;28;94106;-96
2023/04/20 00:01:24;;;;;;;;;;;13.50;98.70;13.80;99081.00;;;;337211;28;82631;-96
2023/04/20 00:01:36;;;;;;;;;;;13.60;98.70;13.70;99071.00;;;;338873;28;94639;-96
2023/04/20 00:01:48;;;;;;;;;;;13.60;98.60;13.80;99069.00;;;;337066;28;82514;-96
2023/04/20 00:02:01;;;;;;;;;;;13.60;98.70;13.80;99079.00;;;;334982;29;94627;-96
2023/04/20 00:02:14;;;;;;;;;;;13.50;98.70;13.90;99077.00;;;;334634;29;82445;-96
2023/04/20 00:02:26;;;;;;;;;;;13.60;98.80;13.80;99079.00;;;;334884;29;95922;-96
2023/04/20 00:02:38;;;;;;;;;;;13.60;98.80;13.80;99073.00;;;;338515;28;83455;-96
2023/04/20 00:02:51;;;;;;;;;;;13.60;98.80;13.80;99074.00;;;;337576;28;94379;-96
2023/04/20 00:03:03;;;;;;;;;;;13.50;98.70;13.80;99072.00;;;;338406;28;82513;-96
2023/04/20 00:03:19;;;;;;;;;;;13.50;98.70;13.90;99068.00;;;;336346;28;94925;-96
2023/04/20 00:03:34;;;;;;;;;;;13.50;98.60;13.90;99075.00;;;;335997;29;82478;-96
2023/04/20 00:03:46;;;;;;;;;;;13.50;98.60;13.70;99075.00;;;;336245;28;94256;-96
2023/04/20 00:03:58;;;;;;;;;;;13.50;98.80;13.60;99076.00;;;;335948;29;82523;-96
2023/04/20 00:04:10;;;;;;;;;;;13.50;99.00;13.60;99083.00;;;;336229;28;94664;-96
2023/04/20 00:04:22;;;;;;;;;;;13.50;99.10;13.60;99076.00;;;;334618;29;82468;-96
2023/04/20 00:04:35;;;;;;;;;;;13.50;99.10;13.60;99072.00;;;;336262;28;94424;-96
2023/04/20 00:04:47;;;;;;;;;;;13.50;99.10;13.70;99073.00;;;;337013;28;82298;-96
2023/04/20 00:04:59;;;;;;;;;;;13.50;98.90;13.80;99079.00;;;;337452;28;94735;-96
2023/04/20 00:05:11;;;;;;;;;;;13.50;98.90;13.70;99072.00;;;;336943;28;82548;-96
2023/04/20 00:05:23;;;;;;;;;;;13.40;99.00;13.80;99074.00;;;;334799;29;94566;-96
2023/04/20 00:05:36;;;;;;;;;;;13.50;98.90;13.80;99075.00;;;;338107;28;82577;-96
2023/04/20 00:05:48;;;;;;;;;;;13.40;98.90;13.80;99073.00;;;;336042;28;94076;-96
2023/04/20 00:06:00;;;;;;;;;;;13.40;98.90;13.80;99076.00;;;;335724;29;82456;-96
2023/04/20 00:06:12;;;;;;;;;;;13.40;98.90;13.80;99065.00;;;;337472;28;93302;-96
2023/04/20 00:06:28;;;;;;;;;;;13.40;98.90;13.80;99064.00;;;;335494;29;82526;-96
2023/04/20 00:06:42;;;;;;;;;;;13.40;98.90;13.80;99072.00;;;;336260;28;95829;-94
2023/04/20 00:06:55;;;;;;;;;;;13.50;99.10;13.80;99068.00;;;;335676;28;82571;-96
2023/04/20 00:07:07;;;;;;;;;;;13.50;99.10;13.70;99071.00;;;;337486;28;94781;-96
2023/04/20 00:07:20;;;;;;;;;;;13.50;99.10;13.60;99070.00;;;;336912;28;82548;-96
2023/04/20 00:07:32;;;;;;;;;;;13.50;99.10;13.70;99064.00;;;;336065;28;94754;-96
2023/04/20 00:07:44;;;;;;;;;;;13.40;99.20;13.70;99068.00;;;;338181;28;82529;-96
2023/04/20 00:07:57;;;;;;;;;;;13.40;99.10;13.70;99069.00;;;;335956;28;94689;-96
2023/04/20 00:08:09;;;;;;;;;;;13.40;99.10;13.70;99066.00;;;;336838;28;82448;-96
2023/04/20 00:08:21;;;;;;;;;;;13.40;99.00;13.70;99066.00;;;;337394;28;95050;-96
2023/04/20 00:08:33;;;;;;;;;;;13.40;99.00;13.80;99075.00;;;;339457;28;83461;-96
2023/04/20 00:08:45;;;;;;;;;;;13.40;99.00;13.70;99055.00;;;;333572;29;94347;-96
2023/04/20 00:08:57;;;;;;;;;;;13.40;99.10;13.60;99069.00;;;;338249;28;82530;-96
2023/04/20 00:09:11;;;;;;;;;;;13.40;99.10;13.70;99057.00;;;;334788;29;94127;-96
2023/04/20 00:09:23;;;;;;;;;;;13.40;99.10;13.70;99071.00;;;;334404;29;82498;-96
2023/04/20 00:09:35;;;;;;;;;;;13.40;99.10;13.60;99064.00;;;;337548;28;94626;-96
2023/04/20 00:09:47;;;;;;;;;;;13.40;99.20;13.70;99067.00;;;;336846;28;82532;-96
2023/04/20 00:09:59;;;;;;;;;;;13.40;99.10;13.60;99069.00;;;;335998;28;94028;-96
2023/04/20 00:10:11;;;;;;;;;;;13.40;99.20;13.70;99069.00;;;;336119;29;82563;-96
2023/04/20 00:10:23;;;;;;;;;;;13.40;99.20;13.70;99067.00;;;;335021;29;94884;-96
2023/04/20 00:10:35;;;;;;;;;;;13.40;99.20;13.60;99071.00;;;;337293;28;82577;-96
2023/04/20 00:10:46;;;;;;;;;;;13.40;99.20;13.70;99069.00;;;;336579;28;94264;-96
2023/04/20 00:10:58;;;;;;;;;;;13.40;99.10;13.50;99064.00;;;;338630;28;82539;-96
2023/04/20 00:11:10;;;;;;;;;;;13.40;99.20;13.70;99062.00;;;;336746;28;92283;-96
2023/04/20 00:11:22;;;;;;;;;;;13.40;99.20;13.70;99066.00;;;;337057;28;82537;-96
2023/04/20 00:11:34;;;;;;;;;;;13.40;99.20;13.70;99072.00;;;;337623;28;94964;-96
2023/04/20 00:11:46;;;;;;;;;;;13.40;99.10;13.70;99060.00;;;;338355;28;82488;-96
2023/04/20 00:11:58;;;;;;;;;;;13.40;99.10;13.70;99058.00;;;;334669;29;94596;-96
2023/04/20 00:12:10;;;;;;;;;;;13.40;99.10;13.70;99064.00;;;;335520;29;82459;-96
2023/04/20 00:12:22;;;;;;;;;;;13.40;99.10;13.70;99069.00;;;;337584;28;94735;-96
2023/04/20 00:12:34;;;;;;;;;;;13.40;99.10;13.80;99065.00;;;;338347;28;82475;-96
2023/04/20 00:12:46;;;;;;;;;;;13.40;99.10;13.80;99064.00;;;;335838;28;95628;-96
2023/04/20 00:12:58;;;;;;;;;;;13.40;99.10;13.80;99065.00;;;;336749;28;82556;-96
2023/04/20 00:13:10;;;;;;;;;;;13.40;99.10;13.80;99065.00;;;;334949;29;95448;-96
2023/04/20 00:13:22;;;;;;;;;;;13.40;99.10;13.80;99065.00;;;;338141;28;82549;-96
2023/04/20 00:13:34;;;;;;;;;;;13.40;99.00;13.80;99068.00;;;;336344;28;94954;-96
2023/04/20 00:13:46;;;;;;;;;;;13.40;99.00;13.80;99066.00;;;;338102;28;82549;-96
2023/04/20 00:13:58;;;;;;;;;;;13.40;99.00;13.90;99064.00;;;;337603;28;94372;-96
2023/04/20 00:14:10;;;;;;;;;;;13.40;98.90;13.80;99071.00;;;;335576;28;82577;-96
2023/04/20 00:14:21;;;;;;;;;;;13.40;99.00;13.80;99069.00;;;;337360;28;93034;-96
2023/04/20 00:14:33;;;;;;;;;;;13.40;99.10;13.70;99064.00;;;;335467;29;83457;-96
2023/04/20 00:14:45;;;;;;;;;;;13.40;99.00;13.80;99062.00;;;;336019;28;94668;-96
2023/04/20 00:14:57;;;;;;;;;;;13.40;99.00;13.80;99062.00;;;;336835;28;82520;-96
2023/04/20 00:15:09;;;;;;;;;;;13.40;99.00;13.90;99060.00;;;;337280;28;94899;-96
2023/04/20 00:15:21;;;;;;;;;;;13.40;99.00;13.80;99063.00;;;;337064;28;82529;-96
2023/04/20 00:15:33;;;;;;;;;;;13.40;99.10;13.80;99062.00;;;;334987;29;93154;-96
2023/04/20 00:15:45;;;;;;;;;;;13.40;99.10;13.70;99065.00;;;;335831;29;82363;-96
2023/04/20 00:15:57;;;;;;;;;;;13.40;99.10;13.80;99071.00;;;;336031;28;94149;-96
2023/04/20 00:16:09;;;;;;;;;;;13.40;99.00;13.70;99064.00;;;;334221;29;82601;-96
2023/04/20 00:16:21;;;;;;;;;;;13.50;99.10;13.70;99062.00;;;;336229;28;93087;-96
2023/04/20 00:16:33;;;;;;;;;;;13.40;99.10;13.70;99059.00;;;;336958;28;82551;-96
2023/04/20 00:16:45;;;;;;;;;;;13.40;99.00;13.80;99057.00;;;;336184;28;96677;-96
2023/04/20 00:16:57;;;;;;;;;;;13.40;99.00;13.80;99065.00;;;;336965;28;82509;-96
2023/04/20 00:17:09;;;;;;;;;;;13.50;99.00;13.80;99071.00;;;;336415;28;95493;-96
2023/04/20 00:17:21;;;;;;;;;;;13.40;98.90;13.70;99059.00;;;;337061;28;82616;-96
2023/04/20 00:17:33;;;;;;;;;;;13.40;98.90;13.70;99064.00;;;;336180;28;93517;-96
2023/04/20 00:17:47;;;;;;;;;;;13.40;99.00;13.60;99073.00;;;;337007;28;82429;-96
2023/04/20 00:17:59;;;;;;;;;;;13.40;99.00;13.80;99066.00;;;;336163;28;92262;-96
2023/04/20 00:18:11;;;;;;;;;;;13.40;99.00;13.80;99066.00;;;;337087;28;82564;-96
2023/04/20 00:18:23;;;;;;;;;;;13.40;99.00;13.70;99070.00;;;;337392;28;94576;-96
2023/04/20 00:18:35;;;;;;;;;;;13.40;99.10;13.80;99063.00;;;;335924;29;82452;-96
2023/04/20 00:18:47;;;;;;;;;;;13.40;99.10;13.80;99065.00;;;;335067;29;96682;-96
2023/04/20 00:18:59;;;;;;;;;;;13.40;99.00;13.80;99064.00;;;;339867;28;82527;-96
2023/04/20 00:19:11;;;;;;;;;;;13.40;99.00;13.90;99063.00;;;;337452;28;94076;-96
2023/04/20 00:19:24;;;;;;;;;;;13.40;98.90;13.90;99067.00;;;;337150;28;82410;-96
2023/04/20 00:19:36;;;;;;;;;;;13.40;99.10;13.80;99059.00;;;;335068;29;94851;-96
2023/04/20 00:19:48;;;;;;;;;;;13.40;99.00;13.90;99068.00;;;;337053;28;82406;-96
2023/04/20 00:20:00;;;;;;;;;;;13.50;99.00;13.80;99066.00;;;;334747;29;94681;-96
2023/04/20 00:20:14;;;;;;;;;;;13.40;99.10;13.80;99053.00;;;;338443;28;82374;-96
2023/04/20 00:20:26;;;;;;;;;;;13.40;99.20;13.80;99064.00;;;;337717;28;93430;-96
2023/04/20 00:20:38;;;;;;;;;;;13.40;99.20;13.70;99062.00;;;;338428;28;82453;-96
2023/04/20 00:20:50;;;;;;;;;;;13.40;99.20;13.80;99059.00;;;;333482;29;95608;-96
2023/04/20 00:21:02;;;;;;;;;;;13.40;99.10;13.80;99059.00;;;;336758;28;82521;-96
2023/04/20 00:21:14;;;;;;;;;;;13.40;99.10;13.70;99058.00;;;;336275;28;95652;-96
2023/04/20 00:21:26;;;;;;;;;;;13.40;99.00;13.60;99065.00;;;;337055;28;82465;-96
2023/04/20 00:21:38;;;;;;;;;;;13.40;99.10;13.80;99059.00;;;;338784;28;93302;-96
2023/04/20 00:21:51;;;;;;;;;;;13.40;99.10;13.80;99056.00;;;;337075;28;82478;-96
2023/04/20 00:22:03;;;;;;;;;;;13.40;99.00;13.80;99055.00;;;;337443;28;94108;-95
2023/04/20 00:22:15;;;;;;;;;;;13.40;99.00;13.80;99055.00;;;;336999;28;82537;-96
2023/04/20 00:22:29;;;;;;;;;;;13.40;99.00;13.90;99061.00;;;;334692;29;94166;-96
2023/04/20 00:22:41;;;;;;;;;;;13.40;99.00;13.90;99062.00;;;;335724;29;82496;-96
2023/04/20 00:22:53;;;;;;;;;;;13.40;99.00;13.90;99062.00;;;;336102;28;97849;-96
2023/04/20 00:23:06;;;;;;;;;;;13.50;99.10;13.90;99059.00;;;;338252;28;82567;-96
2023/04/20 00:23:17;;;;;;;;;;;13.40;99.00;13.90;99055.00;;;;337572;28;93005;-96
2023/04/20 00:23:29;;;;;;;;;;;13.40;99.00;13.80;99059.00;;;;336867;28;82564;-96
2023/04/20 00:23:41;;;;;;;;;;;13.40;98.90;13.70;99063.00;;;;336245;28;93335;-96
2023/04/20 00:23:53;;;;;;;;;;;13.40;98.90;13.60;99057.00;;;;338372;28;82471;-96
2023/04/20 00:24:05;;;;;;;;;;;13.50;99.10;13.60;99057.00;;;;336003;28;94769;-96
2023/04/20 00:24:17;;;;;;;;;;;13.40;99.20;13.70;99055.00;;;;335749;29;82434;-96
2023/04/20 00:24:30;;;;;;;;;;;13.40;99.10;13.70;99057.00;;;;334713;29;94470;-96
2023/04/20 00:24:42;;;;;;;;;;;13.40;99.10;13.60;99055.00;;;;336811;28;82661;-96
2023/04/20 00:24:54;;;;;;;;;;;13.40;99.20;13.60;99056.00;;;;336148;28;96726;-96
2023/04/20 00:25:06;;;;;;;;;;;13.40;99.20;13.70;99061.00;;;;337016;28;82537;-96
2023/04/20 00:25:19;;;;;;;;;;;13.40;99.20;13.70;99058.00;;;;335116;29;95938;-96
2023/04/20 00:25:31;;;;;;;;;;;13.40;99.20;13.70;99060.00;;;;335616;29;83546;-96
2023/04/20 00:25:43;;;;;;;;;;;13.40;99.20;13.70;99061.00;;;;336209;28;94624;-96
2023/04/20 00:25:55;;;;;;;;;;;13.40;99.10;13.80;99057.00;;;;335842;29;82534;-96
2023/04/20 00:26:07;;;;;;;;;;;13.40;99.10;13.80;99063.00;;;;335090;29;95168;-96
2023/04/20 00:26:20;;;;;;;;;;;13.40;99.10;13.70;99056.00;;;;338306;28;82529;-96
2023/04/20 00:26:32;;;;;;;;;;;13.40;99.10;13.70;99050.00;;;;334960;29;94579;-96
2023/04/20 00:26:44;;;;;;;;;;;13.40;99.10;13.80;99049.00;;;;338499;28;82466;-96
2023/04/20 00:26:56;;;;;;;;;;;13.40;99.00;13.80;99051.00;;;;336292;28;94385;-96
2023/04/20 00:27:08;;;;;;;;;;;13.40;99.00;13.80;99052.00;;;;336976;28;82582;-96
2023/04/20 00:27:20;;;;;;;;;;;13.40;99.10;13.80;99054.00;;;;337464;28;94721;-96
2023/04/20 00:27:32;;;;;;;;;;;13.40;99.10;13.80;99057.00;;;;338025;28;82543;-96
2023/04/20 00:27:44;;;;;;;;;;;13.40;99.00;13.80;99049.00;;;;337583;28;95888;-96
2023/04/20 00:27:56;;;;;;;;;;;13.40;99.00;13.70;99057.00;;;;336819;28;82551;-96
2023/04/20 00:28:08;;;;;;;;;;;13.40;99.10;13.80;99051.00;;;;333765;29;94945;-96
2023/04/20 00:28:20;;;;;;;;;;;13.40;99.00;13.80;99049.00;;;;336889;28;82545;-96
2023/04/20 00:28:32;;;;;;;;;;;13.40;99.00;13.80;99049.00;;;;336096;28;94713;-96
2023/04/20 00:28:44;;;;;;;;;;;13.40;99.10;13.80;99055.00;;;;334069;29;82576;-96
2023/04/20 00:28:56;;;;;;;;;;;13.40;99.10;13.60;99057.00;;;;334686;28;94763;-96
2023/04/20 00:29:08;;;;;;;;;;;13.40;99.20;13.70;99052.00;;;;335425;29;82590;-96
2023/04/20 00:29:20;;;;;;;;;;;13.40;99.10;13.70;99053.00;;;;335107;29;94831;-96
2023/04/20 00:29:32;;;;;;;;;;;13.40;99.10;13.60;99050.00;;;;336887;28;82441;-96
2023/04/20 00:29:43;;;;;;;;;;;13.40;99.10;13.70;99056.00;;;;334742;29;94624;-96
2023/04/20 00:29:55;;;;;;;;;;;13.40;99.10;13.80;99053.00;;;;335731;29;82387;-96
2023/04/20 00:30:09;;;;;;;;;;;13.40;99.00;13.80;99056.00;;;;337326;28;94588;-96
2023/04/20 00:30:21;;;;;;;;;;;13.40;99.10;13.90;99059.00;;;;336837;28;82557;-96
2023/04/20 00:30:33;;;;;;;;;;;13.40;99.10;13.80;99051.00;;;;334740;29;94548;-96
2023/04/20 00:30:45;;;;;;;;;;;13.40;99.10;13.80;99053.00;;;;334368;29;82522;-96
2023/04/20 00:30:57;;;;;;;;;;;13.40;99.20;13.90;99044.00;;;;335981;28;94368;-96
2023/04/20 00:31:09;;;;;;;;;;;13.40;99.20;13.80;99053.00;;;;337008;28;82404;-96
2023/04/20 00:31:21;;;;;;;;;;;13.40;99.20;13.80;99054.00;;;;332505;29;95683;-96
2023/04/20 00:31:33;;;;;;;;;;;13.40;99.20;13.80;99048.00;;;;334378;29;82370;-96
2023/04/20 00:31:44;;;;;;;;;;;13.40;99.20;13.70;99053.00;;;;334909;29;95629;-96
2023/04/20 00:31:56;;;;;;;;;;;13.40;99.30;13.80;99043.00;;;;337148;28;82496;-96
2023/04/20 00:32:08;;;;;;;;;;;13.40;99.30;13.80;99047.00;;;;335887;28;94688;-96
2023/04/20 00:32:20;;;;;;;;;;;13.40;99.20;13.70;99043.00;;;;335681;29;82508;-96
2023/04/20 00:32:32;;;;;;;;;;;13.40;99.20;13.70;99050.00;;;;335008;29;95824;-96
2023/04/20 00:32:44;;;;;;;;;;;13.40;99.30;13.70;99039.00;;;;335643;29;82431;-96
2023/04/20 00:32:56;;;;;;;;;;;13.30;99.20;13.70;99043.00;;;;332089;29;95772;-96
2023/04/20 00:33:08;;;;;;;;;;;13.40;99.10;13.70;99049.00;;;;335630;29;82536;-96
2023/04/20 00:33:20;;;;;;;;;;;13.30;99.10;13.70;99049.00;;;;336253;28;94609;-96
2023/04/20 00:33:32;;;;;;;;;;;13.30;99.10;13.80;99052.00;;;;335494;28;82539;-96
2023/04/20 00:33:44;;;;;;;;;;;13.30;99.20;13.80;99051.00;;;;334964;29;95752;-96
2023/04/20 00:33:55;;;;;;;;;;;13.40;99.20;13.70;99053.00;;;;335693;29;82392;-96
2023/04/20 00:34:07;;;;;;;;;;;13.40;99.20;13.70;99050.00;;;;335960;28;94608;-96
2023/04/20 00:34:19;;;;;;;;;;;13.30;99.20;13.60;99049.00;;;;335616;29;82368;-96
2023/04/20 00:34:31;;;;;;;;;;;13.30;99.10;13.70;99050.00;;;;333515;28;92242;-96
2023/04/20 00:34:43;;;;;;;;;;;13.30;99.20;13.70;99051.00;;;;334442;29;82497;-96
2023/04/20 00:34:55;;;;;;;;;;;13.30;99.20;13.70;99051.00;;;;333509;29;95158;-96
2023/04/20 00:35:08;;;;;;;;;;;13.30;99.20;13.50;99051.00;;;;335694;29;82526;-96
2023/04/20 00:35:20;;;;;;;;;;;13.40;99.20;13.60;99051.00;;;;333717;29;94913;-96
2023/04/20 00:35:32;;;;;;;;;;;13.30;99.30;13.70;99049.00;;;;335674;28;82539;-96
2023/04/20 00:35:44;;;;;;;;;;;13.30;99.30;13.80;99047.00;;;;333573;29;94016;-96
2023/04/20 00:35:56;;;;;;;;;;;13.40;99.30;13.80;99049.00;;;;334617;29;82510;-96
2023/04/20 00:36:08;;;;;;;;;;;13.30;99.30;13.80;99056.00;;;;336101;28;94575;-96
2023/04/20 00:36:20;;;;;;;;;;;13.30;99.20;13.80;99048.00;;;;334356;29;82600;-96
2023/04/20 00:36:32;;;;;;;;;;;13.40;99.30;13.70;99051.00;;;;334754;29;94518;-96
2023/04/20 00:36:44;;;;;;;;;;;13.30;99.20;13.60;99052.00;;;;336685;28;82589;-96
2023/04/20 00:36:56;;;;;;;;;;;13.40;99.20;13.60;99044.00;;;;337362;28;94294;-96
2023/04/20 00:37:08;;;;;;;;;;;13.40;99.30;13.70;99039.00;;;;336799;28;82454;-96
2023/04/20 00:37:20;;;;;;;;;;;13.30;99.20;13.70;99047.00;;;;334745;29;94670;-96
2023/04/20 00:37:32;;;;;;;;;;;13.30;99.20;13.60;99041.00;;;;335410;29;82536;-96
2023/04/20 00:37:44;;;;;;;;;;;13.30;99.30;13.60;99050.00;;;;334850;29;94565;-96
2023/04/20 00:37:56;;;;;;;;;;;13.30;99.30;13.70;99036.00;;;;338301;28;82470;-96
2023/04/20 00:38:08;;;;;;;;;;;13.30;99.30;13.50;99044.00;;;;336095;28;94674;-96
2023/04/20 00:38:19;;;;;;;;;;;13.30;99.30;13.60;99044.00;;;;335797;29;82471;-96
2023/04/20 00:38:31;;;;;;;;;;;13.30;99.30;13.40;99044.00;;;;334897;29;95423;-96
2023/04/20 00:38:43;;;;;;;;;;;13.30;99.50;13.60;99052.00;;;;337171;28;82313;-96
2023/04/20 00:39:04;;;;;;;;;;;13.30;99.50;13.70;99043.00;;;;336409;28;95478;-96
2023/04/20 00:39:19;;;;;;;;;;;13.30;99.40;13.60;99040.00;;;;337435;28;83491;-96
2023/04/20 00:39:40;;;;;;;;;;;13.30;99.30;13.70;99049.00;;;;336696;28;93296;-96
2023/04/20 00:40:06;;;;;;;;;;;13.30;99.40;13.60;99049.00;;;;332259;29;82354;-96
2023/04/20 00:40:18;;;;;;;;;;;13.30;99.30;13.60;99050.00;;;;333948;29;92211;-96
2023/04/20 00:40:30;;;;;;;;;;;13.30;99.30;13.60;99048.00;;;;337211;28;82563;-96
2023/04/20 00:40:43;;;;;;;;;;;13.30;99.30;13.60;99043.00;;;;336779;28;94633;-96
2023/04/20 00:40:55;;;;;;;;;;;13.30;99.30;13.60;99040.00;;;;338351;28;83385;-96
2023/04/20 00:41:07;;;;;;;;;;;13.30;99.40;13.60;99042.00;;;;334123;29;92810;-96
2023/04/20 00:41:20;;;;;;;;;;;13.30;99.40;13.40;99036.00;;;;335957;29;82586;-96
2023/04/20 00:41:31;;;;;;;;;;;13.30;99.40;13.50;99048.00;;;;336105;28;93195;-95
2023/04/20 00:41:43;;;;;;;;;;;13.30;99.30;13.50;99038.00;;;;336978;28;82500;-96
2023/04/20 00:42:03;;;;;;;;;;;13.30;99.30;13.50;99039.00;;;;335947;28;94570;-96
2023/04/20 00:42:15;;;;;;;;;;;13.30;99.30;13.60;99043.00;;;;337527;28;82429;-96
2023/04/20 00:42:31;;;;;;;;;;;13.30;99.30;13.60;99041.00;;;;336332;28;95568;-96
2023/04/20 00:42:43;;;;;;;;;;;13.30;99.30;13.60;99032.00;;;;336885;28;82438;-96
2023/04/20 00:42:55;;;;;;;;;;;13.30;99.30;13.60;99048.00;;;;334799;29;96000;-96
2023/04/20 00:43:10;;;;;;;;;;;13.30;99.30;13.60;99039.00;;;;336859;28;82543;-96
2023/04/20 00:43:22;;;;;;;;;;;13.30;99.20;13.70;99038.00;;;;336027;28;95687;-96
2023/04/20 00:43:34;;;;;;;;;;;13.30;99.20;13.60;99048.00;;;;336739;28;82521;-96
2023/04/20 00:43:51;;;;;;;;;;;13.30;99.30;13.50;99035.00;;;;337401;28;97612;-96
2023/04/20 00:44:03;;;;;;;;;;;13.30;99.30;13.50;99038.00;;;;336892;28;82529;-96
2023/04/20 00:44:15;;;;;;;;;;;13.30;99.40;13.60;99048.00;;;;335913;28;94213;-95
2023/04/20 00:44:26;;;;;;;;;;;13.30;99.30;13.50;99044.00;;;;338018;28;82565;-96
2023/04/20 00:44:38;;;;;;;;;;;13.30;99.40;13.50;99037.00;;;;336010;28;94568;-96
2023/04/20 00:44:50;;;;;;;;;;;13.20;99.30;13.40;99048.00;;;;336628;28;83491;-95
2023/04/20 00:45:02;;;;;;;;;;;13.20;99.40;13.30;99042.00;;;;335960;28;94734;-96
2023/04/20 00:45:14;;;;;;;;;;;13.20;99.50;13.20;99042.00;;;;335429;28;82546;-95
2023/04/20 00:45:26;;;;;;;;;;;13.20;99.60;13.40;99033.00;;;;337349;28;96696;-96
2023/04/20 00:45:38;;;;;;;;;;;13.20;99.60;13.40;99044.00;;;;340692;28;82560;-96
2023/04/20 00:45:53;;;;;;;;;;;13.20;99.60;13.50;99047.00;;;;335966;28;95477;-96
2023/04/20 00:46:05;;;;;;;;;;;13.10;99.50;13.40;99038.00;;;;338031;28;82454;-96
2023/04/20 00:46:18;;;;;;;;;;;13.20;99.50;13.50;99038.00;;;;334914;29;92789;-96
2023/04/20 00:46:30;;;;;;;;;;;13.20;99.50;13.50;99044.00;;;;335311;29;82438;-96
2023/04/20 00:46:42;;;;;;;;;;;13.10;99.50;13.50;99044.00;;;;336120;28;94780;-96
2023/04/20 00:46:56;;;;;;;;;;;13.20;99.50;13.50;99037.00;;;;338155;28;82611;-96
2023/04/20 00:47:07;;;;;;;;;;;13.20;99.50;13.40;99030.00;;;;333512;29;95613;-96
2023/04/20 00:47:19;;;;;;;;;;;13.10;99.80;13.40;99038.00;;;;336898;28;82458;-96
2023/04/20 00:47:31;;;;;;;;;;;13.20;99.50;13.40;99039.00;;;;337217;28;94605;-96
2023/04/20 00:47:43;;;;;;;;;;;13.20;99.50;13.40;99040.00;;;;335397;28;82578;-95
2023/04/20 00:47:55;;;;;;;;;;;13.20;99.40;13.30;99038.00;;;;335853;28;95806;-95
2023/04/20 00:48:07;;;;;;;;;;;13.10;99.50;13.20;99039.00;;;;336671;28;83570;-96
2023/04/20 00:48:20;;;;;;;;;;;13.10;99.50;13.20;99030.00;;;;334568;29;94088;-96
2023/04/20 00:48:32;;;;;;;;;;;13.10;99.60;13.30;99034.00;;;;336722;28;82595;-96
2023/04/20 00:48:44;;;;;;;;;;;13.10;99.60;13.40;99035.00;;;;334884;29;93027;-96
2023/04/20 00:48:56;;;;;;;;;;;13.10;99.70;13.30;99035.00;;;;336685;28;82541;-96
2023/04/20 00:49:08;;;;;;;;;;;13.10;99.80;13.30;99039.00;;;;335910;28;94340;-96
2023/04/20 00:49:20;;;;;;;;;;;13.10;99.70;13.30;99039.00;;;;337096;28;82443;-96
2023/04/20 00:49:32;;;;;;;;;;;13.10;99.80;13.40;99034.00;;;;338502;28;94219;-96
2023/04/20 00:49:44;;;;;;;;;;;13.10;99.80;13.30;99041.00;;;;336689;28;82568;-96
2023/04/20 00:49:55;;;;;;;;;;;13.10;99.80;13.40;99025.00;;;;334829;29;95859;-96
2023/04/20 00:50:08;;;;;;;;;;;13.10;99.80;13.40;99036.00;;;;339434;28;82516;-96
2023/04/20 00:50:20;;;;;;;;;;;13.10;99.70;13.40;99034.00;;;;336119;28;95769;-96
2023/04/20 00:50:32;;;;;;;;;;;13.10;99.80;13.30;99035.00;;;;336713;28;82531;-96
2023/04/20 00:50:44;;;;;;;;;;;13.10;99.80;13.20;99032.00;;;;338507;28;94194;-96
2023/04/20 00:50:56;;;;;;;;;;;13.00;99.80;13.30;99036.00;;;;336787;28;82329;-96
2023/04/20 00:51:08;;;;;;;;;;;13.00;99.80;13.40;99029.00;;;;337262;28;94364;-95
2023/04/20 00:51:21;;;;;;;;;;;13.00;99.80;13.40;99035.00;;;;336655;28;82473;-96
2023/04/20 00:51:33;;;;;;;;;;;13.00;99.70;13.50;99035.00;;;;334811;29;94146;-96
2023/04/20 00:51:45;;;;;;;;;;;13.00;99.70;13.50;99035.00;;;;335427;29;82531;-96
2023/04/20 00:51:57;;;;;;;;;;;13.00;99.70;13.50;99038.00;;;;334790;29;94031;-96
2023/04/20 00:52:09;;;;;;;;;;;13.10;99.70;13.50;99028.00;;;;337954;28;82585;-96
2023/04/20 00:52:21;;;;;;;;;;;13.00;99.60;13.50;99030.00;;;;335958;28;94180;-96
2023/04/20 00:52:33;;;;;;;;;;;13.00;99.60;13.40;99026.00;;;;335542;29;82484;-96
2023/04/20 00:52:45;;;;;;;;;;;13.10;99.70;13.30;99034.00;;;;334726;29;95240;-96
2023/04/20 00:52:57;;;;;;;;;;;13.10;99.80;13.40;99032.00;;;;335419;29;82535;-96
2023/04/20 00:53:08;;;;;;;;;;;13.10;99.70;13.20;99034.00;;;;337124;28;94637;-96
2023/04/20 00:53:20;;;;;;;;;;;13.00;99.80;13.20;99033.00;;;;335376;29;82537;-96
2023/04/20 00:53:32;;;;;;;;;;;13.00;99.80;13.10;99036.00;;;;335815;28;95681;-96
2023/04/20 00:53:44;;;;;;;;;;;13.00;99.90;13.20;99031.00;;;;338013;28;82582;-96
2023/04/20 00:53:56;;;;;;;;;;;13.00;99.90;13.30;99036.00;;;;334663;29;95559;-96
2023/04/20 00:54:08;;;;;;;;;;;13.00;99.90;13.30;99028.00;;;;336746;28;82647;-95
2023/04/20 00:54:20;;;;;;;;;;;13.00;99.90;13.20;99033.00;;;;334803;29;95667;-96
2023/04/20 00:54:32;;;;;;;;;;;12.90;99.80;13.20;99031.00;;;;334242;29;82534;-96
2023/04/20 00:54:44;;;;;;;;;;;13.00;99.90;13.30;99030.00;;;;336114;28;94615;-96
2023/04/20 00:54:55;;;;;;;;;;;13.00;99.80;13.30;99033.00;;;;335433;29;82448;-96
2023/04/20 00:55:09;;;;;;;;;;;13.00;99.80;13.30;99028.00;;;;338745;28;95411;-96
2023/04/20 00:55:22;;;;;;;;;;;13.00;99.90;13.10;99035.00;;;;336625;28;83495;-96
2023/04/20 00:55:34;;;;;;;;;;;13.00;99.90;13.10;99031.00;;;;334763;29;95388;-96
2023/04/20 00:55:46;;;;;;;;;;;12.90;99.90;13.00;99035.00;;;;335558;29;82222;-96
2023/04/20 00:55:58;;;;;;;;;;;12.90;99.90;13.20;99033.00;;;;333475;29;96295;-96
2023/04/20 00:56:11;;;;;;;;;;;12.90;99.90;13.20;99028.00;;;;336678;28;82626;-96
2023/04/20 00:56:23;;;;;;;;;;;12.90;99.90;13.20;99030.00;;;;337208;28;94586;-96
2023/04/20 00:56:35;;;;;;;;;;;12.90;99.90;13.20;99026.00;;;;335355;29;82623;-96
2023/04/20 00:56:47;;;;;;;;;;;12.90;99.90;13.20;99033.00;;;;335825;28;94576;-95
2023/04/20 00:57:00;;;;;;;;;;;12.90;99.90;13.20;99027.00;;;;339464;28;82518;-96
2023/04/20 00:57:15;;;;;;;;;;;12.90;99.90;13.10;99036.00;;;;338699;28;94941;-96
2023/04/20 00:57:27;;;;;;;;;;;12.90;99.90;13.10;99033.00;;;;337945;28;82648;-96
2023/04/20 00:57:39;;;;;;;;;;;12.90;99.90;13.20;99028.00;;;;337060;28;94115;-96
2023/04/20 00:57:51;;;;;;;;;;;12.90;99.90;13.20;99035.00;;;;337978;28;82546;-95
2023/04/20 00:58:03;;;;;;;;;;;12.90;99.90;13.30;99032.00;;;;334686;28;94241;-96
2023/04/20 00:58:15;;;;;;;;;;;12.90;99.90;13.30;99025.00;;;;336689;28;82570;-96
2023/04/20 00:58:27;;;;;;;;;;;12.90;99.90;13.30;99024.00;;;;334572;29;94708;-96
2023/04/20 00:58:40;;;;;;;;;;;12.90;99.90;13.30;99019.00;;;;340615;28;82410;-96
2023/04/20 00:58:52;;;;;;;;;;;12.90;99.90;13.20;99032.00;;;;337260;28;93773;-96
2023/04/20 00:59:04;;;;;;;;;;;12.90;99.90;13.20;99025.00;;;;338117;28;82560;-96
2023/04/20 00:59:16;;;;;;;;;;;12.90;99.90;13.30;99032.00;;;;336144;28;94534;-96
2023/04/20 00:59:28;;;;;;;;;;;12.90;99.90;13.30;99024.00;;;;338209;28;82526;-96
2023/04/20 00:59:40;;;;;;;;;;;12.90;99.90;13.30;99023.00;;;;337427;28;95743;-96
2023/04/20 00:59:52;;;;;;;;;;;12.90;99.90;13.30;99028.00;;;;335427;29;82549;-96
2023/04/20 01:00:06;;;;;;;;;;;12.90;99.90;13.30;99029.00;;;;338230;28;96620;-96
2023/04/20 01:00:18;;;;;;;;;;;12.90;99.90;13.30;99031.00;;;;338204;28;82463;-95
2023/04/20 01:00:30;;;;;;;;;;;12.90;99.90;13.20;99026.00;;;;334631;29;91863;-96
2023/04/20 01:00:43;;;;;;;;;;;12.90;99.90;13.30;99019.00;;;;335325;29;82542;-96
2023/04/20 01:00:55;;;;;;;;;;;12.90;99.90;13.30;99026.00;;;;335815;28;94744;-96
2023/04/20 01:01:07;;;;;;;;;;;12.90;99.90;13.30;99024.00;;;;336944;28;82438;-96